Time;durP1;ratioP1;P1;durP2;ratioP2;P2;SDS_P1;SDS_P2;PMS_P1;PMS_P2;Temp;Humidity;BMP_temperature;BMP_pressure;BME280_temperature;BME280_humidity;BME280_pressure;Samples;Min_cycle;Max_cycle;Signal;HPM_P1;HPM_P2
2023/08/09 00:00:46;;;;;;;14.00;5.57;;;30.60;30.60;;;;;;20829105;28;20069;-57
2023/08/09 00:10:47;;;;;;;15.13;6.57;;;30.70;31.10;;;;;;20827947;28;20037;-57
2023/08/09 00:20:48;;;;;;;15.13;7.97;;;30.60;31.50;;;;;;20843156;28;20510;-56
2023/08/09 00:30:49;;;;;;;15.07;5.43;;;30.20;32.10;;;;;;20842359;28;20058;-57
2023/08/09 00:40:49;;;;;;;16.45;5.10;;;30.00;32.60;;;;;;20842645;28;20103;-57
2023/08/09 00:50:50;;;;;;;15.65;6.60;;;29.80;32.90;;;;;;20841781;28;20445;-56
2023/08/09 01:00:51;;;;;;;12.35;5.10;;;29.60;33.10;;;;;;20841239;28;20121;-57
2023/08/09 01:11:09;;;;;;;13.23;7.85;;;29.60;33.30;;;;;;20840240;28;20160;-56
2023/08/09 01:21:11;;;;;;;11.65;5.55;;;29.50;33.50;;;;;;20839670;28;20406;-57
2023/08/09 01:31:11;;;;;;;13.95;7.60;;;29.40;33.80;;;;;;20836832;28;20050;-56
2023/08/09 01:41:13;;;;;;;14.70;5.60;;;29.40;34.00;;;;;;20838130;28;20042;-57
2023/08/09 01:51:14;;;;;;;15.10;5.43;;;29.40;34.20;;;;;;20837196;28;20041;-56
2023/08/09 02:01:14;;;;;;;15.23;6.43;;;29.30;34.60;;;;;;20836396;28;20053;-57
2023/08/09 02:11:15;;;;;;;12.13;5.25;;;29.10;34.80;;;;;;20835602;28;20131;-57
2023/08/09 02:21:16;;;;;;;14.05;5.82;;;29.20;34.90;;;;;;20833741;28;20138;-57
2023/08/09 02:31:18;;;;;;;15.02;6.25;;;29.10;35.00;;;;;;20834337;28;20057;-56
2023/08/09 02:41:20;;;;;;;22.08;6.60;;;29.10;35.30;;;;;;20833138;28;20077;-56
2023/08/09 02:51:20;;;;;;;19.23;6.53;;;29.00;34.30;;;;;;20831369;28;20049;-57
2023/08/09 03:01:22;;;;;;;13.57;5.85;;;29.00;34.60;;;;;;20832252;28;20605;-56
2023/08/09 03:11:25;;;;;;;14.73;5.55;;;28.90;33.70;;;;;;20831655;28;20053;-57
2023/08/09 03:21:26;;;;;;;12.88;4.45;;;28.80;33.30;;;;;;20831218;28;20398;-56
2023/08/09 03:31:27;;;;;;;12.23;4.20;;;28.80;33.30;;;;;;20829021;28;20116;-57
2023/08/09 03:41:28;;;;;;;7.97;3.28;;;28.60;33.20;;;;;;20830577;28;20065;-56
2023/08/09 03:51:29;;;;;;;10.85;3.53;;;28.50;33.30;;;;;;20838498;28;20045;-56
2023/08/09 04:01:30;;;;;;;;;;;28.60;33.20;;;;;;20845852;28;20045;-55
2023/08/09 04:11:31;;;;;;;9.97;4.90;;;28.40;33.30;;;;;;20844445;28;19921;-58
2023/08/09 04:21:33;;;;;;;;;;;28.50;33.80;;;;;;20844453;28;20715;-56
2023/08/09 04:31:34;;;;;;;14.40;5.45;;;27.70;36.10;;;;;;20844115;28;20401;-56
2023/08/09 04:41:38;;;;;;;11.90;5.22;;;27.40;36.90;;;;;;20842827;28;20086;-56
2023/08/09 04:51:40;;;;;;;14.70;5.20;;;27.10;37.80;;;;;;20840739;28;20049;-56
2023/08/09 05:01:41;;;;;;;13.98;5.78;;;26.90;37.80;;;;;;20841273;28;20064;-57
2023/08/09 05:11:42;;;;;;;16.30;5.20;;;26.80;37.90;;;;;;20840688;28;20042;-57
2023/08/09 05:21:42;;;;;;;16.43;5.37;;;26.60;37.20;;;;;;20839456;28;20049;-56
2023/08/09 05:31:43;;;;;;;13.93;5.37;;;26.30;38.00;;;;;;20837699;28;20057;-56
2023/08/09 05:41:44;;;;;;;15.47;5.50;;;26.10;38.30;;;;;;20837536;28;20045;-57
2023/08/09 05:51:44;;;;;;;11.87;4.67;;;26.20;38.10;;;;;;20837093;28;20041;-57
2023/08/09 06:01:45;;;;;;;16.60;5.90;;;26.20;38.20;;;;;;20836062;28;20038;-58
2023/08/09 06:11:46;;;;;;;12.53;6.13;;;26.20;38.40;;;;;;20834794;28;20038;-58
2023/08/09 06:21:47;;;;;;;16.07;6.40;;;26.40;38.30;;;;;;20833562;28;20050;-56
2023/08/09 06:31:48;;;;;;;13.77;5.97;;;26.50;38.40;;;;;;20832722;28;20068;-57
2023/08/09 06:41:49;;;;;;;18.40;5.03;;;26.60;38.30;;;;;;20833077;28;20060;-57
2023/08/09 06:51:50;;;;;;;12.27;5.03;;;26.70;38.30;;;;;;20831956;28;20045;-57
2023/08/09 07:01:52;;;;;;;14.60;5.75;;;27.10;37.50;;;;;;20831505;28;20783;-57
2023/08/09 07:11:52;;;;;;;16.83;4.75;;;27.50;38.10;;;;;;20830267;28;20395;-56
2023/08/09 07:21:53;;;;;;;15.33;5.07;;;28.00;36.60;;;;;;20831563;28;20054;-57
2023/08/09 07:31:54;;;;;;;;;;;28.50;35.20;;;;;;20846555;28;20477;-57
2023/08/09 07:41:54;;;;;;;12.30;4.53;;;28.90;34.10;;;;;;20846667;28;20341;-56
2023/08/09 07:51:56;;;;;;;10.07;3.17;;;29.20;33.40;;;;;;20844218;28;20091;-58
2023/08/09 08:01:56;;;;;;;11.90;4.00;;;29.60;32.90;;;;;;20843389;28;20103;-57
2023/08/09 08:11:57;;;;;;;17.65;3.97;;;29.90;32.70;;;;;;20844157;28;20041;-58
2023/08/09 08:21:59;;;;;;;15.05;3.97;;;30.10;33.00;;;;;;20843100;28;20137;-57
2023/08/09 08:32:00;;;;;;;11.40;4.80;;;30.40;33.30;;;;;;20842543;28;20085;-57
2023/08/09 08:42:01;;;;;;;12.25;3.85;;;30.60;33.30;;;;;;20841674;28;20491;-57
2023/08/09 08:52:06;;;;;;;11.27;3.13;;;30.80;33.50;;;;;;20839673;28;20042;-57
2023/08/09 09:02:08;;;;;;;12.07;3.72;;;30.90;33.90;;;;;;20841359;28;20045;-57
2023/08/09 09:12:09;;;;;;;12.77;3.60;;;31.10;34.10;;;;;;20839312;28;20049;-57
2023/08/09 09:22:09;;;;;;;12.57;4.18;;;31.30;34.10;;;;;;20839094;28;20438;-58
2023/08/09 09:32:10;;;;;;;10.70;3.28;;;31.50;34.10;;;;;;20836062;28;20108;-58
2023/08/09 09:42:13;;;;;;;17.08;3.90;;;31.60;34.20;;;;;;20835373;28;20504;-57
2023/08/09 09:52:14;;;;;;;16.58;5.00;;;31.90;34.10;;;;;;20835040;28;20049;-58
2023/08/09 10:02:17;;;;;;;14.75;4.75;;;32.10;33.60;;;;;;20834789;28;20056;-58
2023/08/09 10:12:17;;;;;;;15.40;5.15;;;32.40;33.20;;;;;;20835007;28;20449;-57
2023/08/09 10:22:19;;;;;;;20.67;4.78;;;32.50;33.40;;;;;;20834582;28;20084;-60
2023/08/09 10:32:53;;;;;;;18.92;4.75;;;32.90;32.90;;;;;;20832632;28;20115;-58
2023/08/09 10:42:54;;;;;;;16.20;4.72;;;33.30;32.40;;;;;;20832186;28;20351;-59
2023/08/09 10:53:00;;;;;;;13.82;4.47;;;33.50;32.00;;;;;;20829850;28;20049;-58
2023/08/09 11:03:01;;;;;;;20.85;4.60;;;33.80;32.40;;;;;;20830911;28;20145;-57
2023/08/09 11:13:06;;;;;;;14.18;4.20;;;33.90;32.40;;;;;;20830314;28;20042;-57
2023/08/09 11:23:07;;;;;;;14.10;4.22;;;34.50;30.60;;;;;;20829721;28;20052;-58
2023/08/09 11:33:09;;;;;;;21.45;6.28;;;34.70;29.30;;;;;;20827812;28;20168;-58
2023/08/09 11:43:17;;;;;;;14.77;4.57;;;34.90;29.00;;;;;;20829244;28;20590;-59
2023/08/09 11:53:19;;;;;;;17.48;4.72;;;35.20;28.60;;;;;;20828801;28;20442;-57
2023/08/09 12:03:21;;;;;;;16.27;5.47;;;35.50;27.80;;;;;;20829048;28;20076;-60
2023/08/09 12:13:22;;;;;;;9.55;4.47;;;35.60;27.90;;;;;;20837515;28;20460;-57
2023/08/09 12:23:23;;;;;;;15.05;4.60;;;36.00;27.10;;;;;;20843682;28;20087;-57
2023/08/09 12:33:25;;;;;;;15.30;5.30;;;36.10;27.30;;;;;;20840360;28;20055;-57
2023/08/09 12:43:26;;;;;;;18.60;4.40;;;36.20;27.10;;;;;;20840909;28;20089;-57
2023/08/09 12:53:27;;;;;;;19.03;4.87;;;36.50;26.70;;;;;;20840270;28;20052;-59
2023/08/09 13:03:28;;;;;;;12.80;4.72;;;37.00;25.20;;;;;;20840801;28;20307;-57
2023/08/09 13:13:29;;;;;;;15.77;5.03;;;37.20;24.60;;;;;;20839985;28;20064;-56
2023/08/09 13:23:30;;;;;;;19.52;4.85;;;37.40;24.70;;;;;;20836820;28;20045;-57
2023/08/09 13:33:31;;;;;;;14.00;4.43;;;37.40;24.30;;;;;;20837162;28;20057;-57
2023/08/09 13:43:32;;;;;;;11.07;4.22;;;37.70;24.20;;;;;;20836632;28;20042;-58
2023/08/09 13:53:33;;;;;;;19.58;5.00;;;37.80;24.20;;;;;;20835898;28;20436;-56
2023/08/09 14:03:35;;;;;;;15.65;4.82;;;38.00;23.90;;;;;;20834729;28;20080;-58
2023/08/09 14:13:36;;;;;;;17.33;4.90;;;38.40;23.40;;;;;;20835535;28;20152;-57
2023/08/09 14:23:36;;;;;;;15.93;5.78;;;38.30;23.30;;;;;;20833716;28;20081;-61
2023/08/09 14:33:37;;;;;;;24.75;6.32;;;38.40;23.10;;;;;;20833518;28;20507;-60
2023/08/09 14:43:38;;;;;;;18.80;5.05;;;38.50;22.40;;;;;;20832775;28;20045;-57
2023/08/09 14:53:38;;;;;;;19.83;5.68;;;38.50;22.80;;;;;;20833191;28;20510;-57
2023/08/09 15:03:39;;;;;;;20.17;5.85;;;38.50;23.00;;;;;;20830769;28;20057;-56
2023/08/09 15:13:40;;;;;;;27.13;6.23;;;38.50;22.40;;;;;;20830006;28;20099;-57
2023/08/09 15:23:42;;;;;;;21.27;6.53;;;38.40;22.40;;;;;;20831115;28;20913;-57
2023/08/09 15:33:42;;;;;;;24.17;7.18;;;38.30;22.60;;;;;;20829281;28;20523;-57
2023/08/09 15:43:43;;;;;;;28.83;6.90;;;38.10;23.10;;;;;;20832442;28;20403;-58
2023/08/09 15:53:44;;;;;;;22.33;7.70;;;38.20;23.20;;;;;;20845974;28;20317;-58
2023/08/09 16:03:45;;;;;;;31.17;8.27;;;38.20;22.80;;;;;;20844559;28;20053;-58
2023/08/09 16:13:45;;;;;;;40.90;10.13;;;38.40;21.90;;;;;;20843275;28;20045;-57
2023/08/09 16:23:46;;;;;;;43.35;10.68;;;38.20;20.90;;;;;;20843883;28;20475;-58
2023/08/09 16:33:47;;;;;;;40.50;9.90;;;38.00;21.00;;;;;;20842127;28;20050;-58
2023/08/09 16:43:48;;;;;;;45.33;10.23;;;37.90;21.30;;;;;;20841392;28;20052;-58
2023/08/09 16:53:49;;;;;;;29.77;8.98;;;37.70;21.20;;;;;;20841299;28;20506;-58
2023/08/09 17:03:50;;;;;;;31.98;8.98;;;37.60;22.60;;;;;;20841412;28;20057;-58
2023/08/09 17:13:52;;;;;;;35.80;8.40;;;37.40;23.10;;;;;;20840594;28;20049;-59
2023/08/09 17:23:53;;;;;;;31.30;8.73;;;37.20;23.80;;;;;;20838442;28;20065;-58
2023/08/09 17:33:54;;;;;;;37.05;7.93;;;37.00;24.40;;;;;;20839394;28;20058;-58
2023/08/09 17:43:55;;;;;;;27.25;9.25;;;36.90;24.40;;;;;;20836737;28;20041;-57
2023/08/09 17:53:55;;;;;;;32.40;7.20;;;36.70;24.80;;;;;;20835588;28;20045;-57
2023/08/09 18:03:57;;;;;;;29.25;8.57;;;36.60;25.30;;;;;;20836257;28;20084;-58
2023/08/09 18:13:57;;;;;;;33.40;8.35;;;36.60;25.40;;;;;;20834834;28;20056;-58
2023/08/09 18:23:59;;;;;;;30.27;7.90;;;36.60;25.50;;;;;;20834968;28;20124;-58
2023/08/09 18:34:01;;;;;;;26.42;7.82;;;36.50;25.80;;;;;;20832825;28;20057;-58
2023/08/09 18:44:01;;;;;;;31.10;8.93;;;36.40;25.80;;;;;;20833130;28;20050;-57
2023/08/09 18:54:02;;;;;;;27.27;8.68;;;36.30;26.00;;;;;;20832010;28;20052;-57
2023/08/09 19:04:03;;;;;;;35.80;8.35;;;36.10;26.20;;;;;;20830647;28;20041;-58
2023/08/09 19:14:05;;;;;;;30.77;10.32;;;36.00;26.70;;;;;;20831357;28;20037;-59
2023/08/09 19:24:07;;;;;;;26.90;8.82;;;35.80;27.00;;;;;;20830628;28;20049;-58
2023/08/09 19:34:08;;;;;;;35.45;9.98;;;35.60;27.20;;;;;;20829350;28;20064;-56
2023/08/09 19:44:09;;;;;;;29.55;9.80;;;35.40;27.60;;;;;;20829946;28;20045;-57
2023/08/09 19:54:09;;;;;;;30.92;9.18;;;35.20;28.00;;;;;;20828371;28;20047;-57
2023/08/09 20:04:10;;;;;;;32.60;10.05;;;35.00;28.80;;;;;;20828139;28;20077;-57
2023/08/09 20:14:11;;;;;;;31.50;9.07;;;34.90;29.20;;;;;;20829210;28;20498;-57
2023/08/09 20:24:52;;;;;;;27.75;8.90;;;34.70;29.60;;;;;;20828797;28;20065;-57
2023/08/09 20:34:53;;;;;;;26.88;8.07;;;34.60;29.90;;;;;;20836305;28;20079;-57
2023/08/09 20:44:53;;;;;;;25.63;8.90;;;34.50;30.00;;;;;;20841235;28;20081;-57
2023/08/09 20:54:54;;;;;;;28.60;8.70;;;34.30;30.30;;;;;;20840471;28;20511;-57
2023/08/09 21:04:55;;;;;;;33.13;8.38;;;34.20;30.60;;;;;;20840904;28;20491;-57
2023/08/09 21:14:56;;;;;;;28.48;8.52;;;34.10;30.90;;;;;;20840251;28;20038;-57
2023/08/09 21:24:56;;;;;;;23.25;7.72;;;34.00;31.30;;;;;;20839331;28;20045;-57
2023/08/09 21:34:57;;;;;;;22.75;7.00;;;33.90;31.60;;;;;;20837113;28;20053;-57
2023/08/09 21:44:59;;;;;;;22.15;7.97;;;33.80;32.10;;;;;;20836931;28;20095;-58
2023/08/09 21:54:59;;;;;;;25.75;7.35;;;33.60;32.40;;;;;;20837322;28;20053;-56
2023/08/09 22:05:00;;;;;;;23.70;7.63;;;33.60;32.50;;;;;;20836379;28;20087;-59
2023/08/09 22:15:01;;;;;;;24.77;7.13;;;33.40;32.80;;;;;;20835203;28;20048;-57
2023/08/09 22:25:02;;;;;;;24.85;6.72;;;33.30;33.10;;;;;;20834674;28;20051;-57
2023/08/09 22:35:08;;;;;;;23.27;7.35;;;33.20;33.30;;;;;;20832596;28;20451;-57
2023/08/09 22:45:09;;;;;;;21.05;7.22;;;33.10;33.60;;;;;;20833743;28;20041;-57
2023/08/09 22:55:10;;;;;;;19.15;7.55;;;32.90;33.80;;;;;;20832502;28;20434;-57
2023/08/09 23:05:12;;;;;;;17.80;6.63;;;32.80;33.90;;;;;;20832248;28;20049;-57
2023/08/09 23:15:12;;;;;;;26.02;7.63;;;32.70;34.00;;;;;;20831763;28;20045;-59
2023/08/09 23:25:13;;;;;;;25.58;6.60;;;32.60;34.30;;;;;;20830342;28;20107;-58
2023/08/09 23:35:14;;;;;;;19.98;7.82;;;32.50;34.60;;;;;;20829486;28;20570;-58
2023/08/09 23:45:15;;;;;;;27.85;8.48;;;32.30;34.90;;;;;;20830290;28;20521;-57
2023/08/09 23:55:15;;;;;;;18.98;7.88;;;32.30;34.90;;;;;;20829501;28;20077;-58
